createdAt,value
2023-08-12T00:00:14.351Z,1011.21
2023-08-12T00:01:14.357Z,1011.23
2023-08-12T00:02:14.274Z,1011.25
2023-08-12T00:03:14.385Z,1011.28
2023-08-12T00:04:14.259Z,1011.27
2023-08-12T00:05:14.299Z,1011.30
2023-08-12T00:06:14.272Z,1011.29
2023-08-12T00:07:14.294Z,1011.30
2023-08-12T00:08:14.205Z,1011.28
2023-08-12T00:09:14.220Z,1011.34
2023-08-12T00:10:14.231Z,1011.35
2023-08-12T00:11:14.195Z,1011.35
2023-08-12T00:12:14.190Z,1011.36
2023-08-12T00:13:14.185Z,1011.35
2023-08-12T00:14:14.141Z,1011.35
2023-08-12T00:15:14.165Z,1011.35
2023-08-12T00:16:14.190Z,1011.30
2023-08-12T00:17:14.222Z,1011.27
2023-08-12T00:18:14.132Z,1011.30
2023-08-12T00:19:14.122Z,1011.32
2023-08-12T00:20:14.160Z,1011.33
2023-08-12T00:21:14.099Z,1011.30
2023-08-12T00:22:14.076Z,1011.28
2023-08-12T00:23:14.080Z,1011.25
2023-08-12T00:24:14.063Z,1011.22
2023-08-12T00:25:14.048Z,1011.24
2023-08-12T00:26:14.024Z,1011.26
2023-08-12T00:27:14.162Z,1011.31
2023-08-12T00:28:14.082Z,1011.27
2023-08-12T00:29:14.001Z,1011.24
2023-08-12T00:30:14.035Z,1011.20
2023-08-12T00:31:14.021Z,1011.22
2023-08-12T00:32:13.954Z,1011.27
2023-08-12T00:33:13.976Z,1011.30
2023-08-12T00:34:13.967Z,1011.29
2023-08-12T00:35:13.943Z,1011.24
2023-08-12T00:36:13.928Z,1011.19
2023-08-12T00:37:14.274Z,1011.18
2023-08-12T00:38:13.903Z,1011.18
2023-08-12T00:39:13.922Z,1011.18
2023-08-12T00:40:13.908Z,1011.19
2023-08-12T00:41:13.882Z,1011.21
2023-08-12T00:42:13.869Z,1011.22
2023-08-12T00:43:13.899Z,1011.22
2023-08-12T00:44:13.844Z,1011.22
2023-08-12T00:45:13.881Z,1011.19
2023-08-12T00:46:13.867Z,1011.18
2023-08-12T00:47:14.253Z,1011.15
2023-08-12T00:48:14.837Z,1011.15
2023-08-12T00:49:13.832Z,1011.14
2023-08-12T00:50:13.773Z,1011.14
2023-08-12T00:51:13.770Z,1011.11
2023-08-12T00:52:13.745Z,1011.06
2023-08-12T00:53:13.758Z,1011.03
2023-08-12T00:54:13.747Z,1011.00
2023-08-12T00:55:13.747Z,1010.99
2023-08-12T00:56:13.690Z,1010.98
2023-08-12T00:57:13.968Z,1010.99
2023-08-12T00:58:13.723Z,1011.02
2023-08-12T00:59:13.704Z,1011.05
2023-08-12T01:00:13.667Z,1011.06
2023-08-12T01:01:13.825Z,1011.08
2023-08-12T01:02:13.660Z,1011.10
2023-08-12T01:03:13.680Z,1011.11
2023-08-12T01:04:13.650Z,1011.13
2023-08-12T01:05:13.639Z,1011.15
2023-08-12T01:06:13.653Z,1011.15
2023-08-12T01:07:13.773Z,1011.14
2023-08-12T01:08:13.569Z,1011.11
2023-08-12T01:09:13.585Z,1011.09
2023-08-12T01:10:13.562Z,1011.07
2023-08-12T01:11:13.562Z,1011.05
2023-08-12T01:12:13.558Z,1011.04
2023-08-12T01:13:13.565Z,1011.05
2023-08-12T01:14:13.515Z,1011.06
2023-08-12T01:15:13.517Z,1011.06
2023-08-12T01:16:13.545Z,1011.04
2023-08-12T01:17:13.702Z,1011.02
2023-08-12T01:18:13.488Z,1011.01
2023-08-12T01:19:13.511Z,1011.03
2023-08-12T01:20:13.440Z,1011.05
2023-08-12T01:21:13.476Z,1011.05
2023-08-12T01:22:13.440Z,1011.04
2023-08-12T01:23:13.445Z,1011.03
2023-08-12T01:24:13.435Z,1011.02
2023-08-12T01:25:13.418Z,1011.02
2023-08-12T01:26:13.413Z,1011.01
2023-08-12T01:27:13.871Z,1011.01
2023-08-12T01:28:13.358Z,1011.02
2023-08-12T01:29:13.381Z,1011.04
2023-08-12T01:30:13.379Z,1011.06
2023-08-12T01:31:13.413Z,1011.06
2023-08-12T01:32:13.331Z,1011.04
2023-08-12T01:33:13.327Z,1011.03
2023-08-12T01:34:13.294Z,1011.02
2023-08-12T01:35:13.318Z,1011.01
2023-08-12T01:36:13.301Z,1011.00
2023-08-12T01:37:13.589Z,1010.99
2023-08-12T01:38:13.282Z,1010.99
2023-08-12T01:39:13.263Z,1011.01
2023-08-12T01:40:13.233Z,1011.03
2023-08-12T01:41:13.265Z,1011.04
2023-08-12T01:42:13.231Z,1011.03
2023-08-12T01:43:13.214Z,1011.01
2023-08-12T01:44:13.196Z,1010.99
2023-08-12T01:45:13.194Z,1010.98
2023-08-12T01:46:13.181Z,1010.98
2023-08-12T01:47:13.482Z,1010.98
2023-08-12T01:48:13.715Z,1010.98
2023-08-12T01:49:13.161Z,1010.98
2023-08-12T01:50:13.129Z,1010.98
2023-08-12T01:51:13.134Z,1010.97
2023-08-12T01:52:13.112Z,1010.96
2023-08-12T01:53:13.109Z,1010.96
2023-08-12T01:54:13.145Z,1010.96
2023-08-12T01:55:13.110Z,1010.95
2023-08-12T01:56:13.057Z,1010.95
2023-08-12T01:57:13.355Z,1010.96
2023-08-12T01:58:13.032Z,1010.97
2023-08-12T01:59:13.046Z,1010.97
2023-08-12T02:00:13.035Z,1010.97
2023-08-12T02:01:13.065Z,1010.97
2023-08-12T02:02:13.006Z,1010.98
2023-08-12T02:03:13.128Z,1010.97
2023-08-12T02:04:12.970Z,1010.96
2023-08-12T02:05:12.987Z,1010.94
2023-08-12T02:06:12.979Z,1010.94
2023-08-12T02:07:13.288Z,1010.95
2023-08-12T02:08:12.971Z,1010.97
2023-08-12T02:09:12.943Z,1010.98
2023-08-12T02:10:12.915Z,1010.98
2023-08-12T02:11:12.929Z,1010.97
2023-08-12T02:12:12.942Z,1010.96
2023-08-12T02:13:12.879Z,1010.95
2023-08-12T02:14:12.883Z,1010.95
2023-08-12T02:15:12.888Z,1010.95
2023-08-12T02:16:12.870Z,1010.95
2023-08-12T02:17:13.232Z,1010.95
2023-08-12T02:18:12.852Z,1010.95
2023-08-12T02:19:13.345Z,1010.96
2023-08-12T02:20:12.835Z,1010.95
2023-08-12T02:21:12.818Z,1010.93
2023-08-12T02:22:12.785Z,1010.91
2023-08-12T02:23:12.820Z,1010.89
2023-08-12T02:24:12.800Z,1010.89
2023-08-12T02:25:12.805Z,1010.89
2023-08-12T02:26:12.759Z,1010.89
2023-08-12T02:27:13.041Z,1010.90
2023-08-12T02:28:12.722Z,1010.90
2023-08-12T02:29:12.748Z,1010.89
2023-08-12T02:30:12.736Z,1010.88
2023-08-12T02:31:12.728Z,1010.88
2023-08-12T02:32:12.700Z,1010.88
2023-08-12T02:33:12.687Z,1010.88
2023-08-12T02:34:12.662Z,1010.88
2023-08-12T02:35:12.670Z,1010.88
2023-08-12T02:36:12.672Z,1010.87
2023-08-12T02:37:12.892Z,1010.86
2023-08-12T02:38:12.614Z,1010.86
2023-08-12T02:39:12.635Z,1010.85
2023-08-12T02:40:12.595Z,1010.85
2023-08-12T02:41:12.607Z,1010.85
2023-08-12T02:42:12.629Z,1010.84
2023-08-12T02:43:12.583Z,1010.83
2023-08-12T02:44:12.552Z,1010.82
2023-08-12T02:45:12.569Z,1010.81
2023-08-12T02:46:12.561Z,1010.80
2023-08-12T02:47:12.820Z,1010.80
2023-08-12T02:48:12.845Z,1010.79
2023-08-12T02:49:12.518Z,1010.80
2023-08-12T02:50:12.487Z,1010.79
2023-08-12T02:51:12.508Z,1010.80
2023-08-12T02:52:12.475Z,1010.79
2023-08-12T02:53:12.484Z,1010.77
2023-08-12T02:54:12.499Z,1010.75
2023-08-12T02:55:12.486Z,1010.73
2023-08-12T02:56:12.419Z,1010.70
2023-08-12T02:57:12.607Z,1010.68
2023-08-12T02:58:12.456Z,1010.68
2023-08-12T02:59:12.418Z,1010.67
2023-08-12T03:00:12.421Z,1010.65
2023-08-12T03:01:12.410Z,1010.63
2023-08-12T03:02:12.367Z,1010.58
2023-08-12T03:03:12.410Z,1010.54
2023-08-12T03:04:12.364Z,1010.52
2023-08-12T03:05:12.334Z,1010.52
2023-08-12T03:06:12.386Z,1010.54
2023-08-12T03:07:12.498Z,1010.54
2023-08-12T03:08:12.325Z,1010.55
2023-08-12T03:09:12.468Z,1010.56
2023-08-12T03:10:12.305Z,1010.58
2023-08-12T03:11:12.266Z,1010.59
2023-08-12T03:12:12.366Z,1010.59
2023-08-12T03:13:12.275Z,1010.59
2023-08-12T03:14:12.234Z,1010.58
2023-08-12T03:15:12.262Z,1010.57
2023-08-12T03:16:12.232Z,1010.57
2023-08-12T03:17:12.485Z,1010.57
2023-08-12T03:18:12.255Z,1010.57
2023-08-12T03:19:12.201Z,1010.57
2023-08-12T03:20:12.167Z,1010.55
2023-08-12T03:21:12.193Z,1010.54
2023-08-12T03:22:12.149Z,1010.52
2023-08-12T03:23:12.158Z,1010.51
2023-08-12T03:24:12.177Z,1010.49
2023-08-12T03:25:12.146Z,1010.47
2023-08-12T03:26:12.117Z,1010.45
2023-08-12T03:27:12.346Z,1010.45
2023-08-12T03:28:12.085Z,1010.45
2023-08-12T03:29:12.098Z,1010.44
2023-08-12T03:30:12.096Z,1010.42
2023-08-12T03:31:12.089Z,1010.40
2023-08-12T03:32:12.039Z,1010.38
2023-08-12T03:33:12.084Z,1010.37
2023-08-12T03:34:12.020Z,1010.38
2023-08-12T03:35:12.039Z,1010.36
2023-08-12T03:36:12.038Z,1010.32
2023-08-12T03:37:12.338Z,1010.31
2023-08-12T03:38:11.980Z,1010.28
2023-08-12T03:39:12.008Z,1010.26
2023-08-12T03:40:11.961Z,1010.26
2023-08-12T03:41:11.971Z,1010.25
2023-08-12T03:42:11.994Z,1010.23
2023-08-12T03:43:11.948Z,1010.21
2023-08-12T03:44:11.936Z,1010.20
2023-08-12T03:45:11.949Z,1010.17
2023-08-12T03:46:11.909Z,1010.14
2023-08-12T03:47:12.234Z,1010.10
2023-08-12T03:48:11.896Z,1010.08
2023-08-12T03:49:11.916Z,1010.07
2023-08-12T03:50:11.855Z,1010.06
2023-08-12T03:51:11.872Z,1010.04
2023-08-12T03:52:11.831Z,1010.04
2023-08-12T03:53:11.844Z,1010.05
2023-08-12T03:54:11.853Z,1010.07
2023-08-12T03:55:11.830Z,1010.06
2023-08-12T03:56:11.787Z,1010.05
2023-08-12T03:57:12.052Z,1010.04
2023-08-12T03:58:11.796Z,1010.04
2023-08-12T03:59:11.778Z,1010.03
2023-08-12T04:00:11.781Z,1010.02
2023-08-12T04:01:11.791Z,1009.99
2023-08-12T04:02:11.730Z,1009.98
2023-08-12T04:03:11.817Z,1009.95
2023-08-12T04:04:14.246Z,1009.92
2023-08-12T04:05:11.712Z,1009.90
2023-08-12T04:06:12.015Z,1009.88
2023-08-12T04:07:11.973Z,1009.88
2023-08-12T04:08:11.663Z,1009.86
2023-08-12T04:09:11.685Z,1009.84
2023-08-12T04:10:11.646Z,1009.84
2023-08-12T04:11:11.646Z,1009.83
2023-08-12T04:12:11.784Z,1009.83
2023-08-12T04:13:11.632Z,1009.84
2023-08-12T04:14:11.602Z,1009.86
2023-08-12T04:15:11.611Z,1009.87
2023-08-12T04:16:11.582Z,1009.87
2023-08-12T04:17:11.995Z,1009.86
2023-08-12T04:18:11.606Z,1009.84
2023-08-12T04:19:11.578Z,1009.82
2023-08-12T04:20:11.532Z,1009.82
2023-08-12T04:21:11.546Z,1009.82
2023-08-12T04:22:11.547Z,1009.82
2023-08-12T04:23:11.522Z,1009.83
2023-08-12T04:24:11.542Z,1009.83
2023-08-12T04:25:11.541Z,1009.84
2023-08-12T04:26:11.469Z,1009.86
2023-08-12T04:27:11.991Z,1009.86
2023-08-12T04:28:11.458Z,1009.84
2023-08-12T04:29:11.474Z,1009.84
2023-08-12T04:30:11.787Z,1009.82
2023-08-12T04:31:11.539Z,1009.80
2023-08-12T04:32:11.429Z,1009.77
2023-08-12T04:33:11.437Z,1009.72
2023-08-12T04:34:11.434Z,1009.68
2023-08-12T04:35:11.485Z,1009.65
2023-08-12T04:36:11.476Z,1009.62
2023-08-12T04:37:11.664Z,1009.60
2023-08-12T04:38:11.482Z,1009.58
2023-08-12T04:39:11.382Z,1009.58
2023-08-12T04:40:11.322Z,1009.57
2023-08-12T04:41:11.405Z,1009.57
2023-08-12T04:42:11.321Z,1009.57
2023-08-12T04:43:11.322Z,1009.56
2023-08-12T04:44:11.294Z,1009.54
2023-08-12T04:45:11.299Z,1009.53
2023-08-12T04:46:11.265Z,1009.51
2023-08-12T04:47:11.751Z,1009.50
2023-08-12T04:48:11.318Z,1009.49
2023-08-12T04:49:11.258Z,1009.50
2023-08-12T04:50:11.215Z,1009.51
2023-08-12T04:51:11.254Z,1009.51
2023-08-12T04:52:11.198Z,1009.50
2023-08-12T04:53:11.204Z,1009.49
2023-08-12T04:54:11.222Z,1009.47
2023-08-12T04:55:11.192Z,1009.44
2023-08-12T04:56:11.149Z,1009.44
2023-08-12T04:57:11.463Z,1009.42
2023-08-12T04:58:11.133Z,1009.41
2023-08-12T04:59:11.141Z,1009.40
2023-08-12T05:00:11.144Z,1009.39
2023-08-12T05:01:11.126Z,1009.36
2023-08-12T05:02:11.110Z,1009.34
2023-08-12T05:03:11.153Z,1009.33
2023-08-12T05:04:11.074Z,1009.30
2023-08-12T05:05:11.140Z,1009.27
2023-08-12T05:06:11.098Z,1009.24
2023-08-12T05:07:11.073Z,1009.22
2023-08-12T05:08:11.022Z,1009.18
2023-08-12T05:09:11.042Z,1009.16
2023-08-12T05:10:11.006Z,1009.15
2023-08-12T05:11:11.126Z,1009.16
2023-08-12T05:12:11.303Z,1009.18
2023-08-12T05:13:10.999Z,1009.20
2023-08-12T05:14:10.960Z,1009.20
2023-08-12T05:15:10.989Z,1009.19
2023-08-12T05:16:10.951Z,1009.19
2023-08-12T05:17:10.952Z,1009.22
2023-08-12T05:18:10.958Z,1009.22
2023-08-12T05:19:10.932Z,1009.21
2023-08-12T05:20:10.899Z,1009.19
2023-08-12T05:21:10.908Z,1009.17
2023-08-12T05:22:11.121Z,1009.18
2023-08-12T05:23:10.886Z,1009.20
2023-08-12T05:24:10.872Z,1009.22
2023-08-12T05:25:10.899Z,1009.23
2023-08-12T05:26:10.832Z,1009.22
2023-08-12T05:27:10.846Z,1009.21
2023-08-12T05:28:10.831Z,1009.21
2023-08-12T05:29:10.822Z,1009.21
2023-08-12T05:30:10.841Z,1009.21
2023-08-12T05:31:10.812Z,1009.22
2023-08-12T05:32:11.137Z,1009.23
2023-08-12T05:33:10.882Z,1009.24
2023-08-12T05:34:10.770Z,1009.24
2023-08-12T05:35:10.762Z,1009.23
2023-08-12T05:36:10.760Z,1009.19
2023-08-12T05:37:10.756Z,1009.15
2023-08-12T05:38:10.712Z,1009.13
2023-08-12T05:39:10.727Z,1009.09
2023-08-12T05:40:10.700Z,1009.06
2023-08-12T05:41:10.698Z,1009.03
2023-08-12T05:42:10.918Z,1009.01
2023-08-12T05:43:10.694Z,1008.98
2023-08-12T05:44:10.652Z,1008.98
2023-08-12T05:45:10.655Z,1008.97
2023-08-12T05:46:10.668Z,1008.98
2023-08-12T05:47:10.641Z,1008.99
2023-08-12T05:48:10.702Z,1008.99
2023-08-12T05:49:10.633Z,1009.00
2023-08-12T05:50:10.582Z,1008.99
2023-08-12T05:51:10.617Z,1008.98
2023-08-12T05:52:11.079Z,1008.96
2023-08-12T05:53:10.573Z,1008.95
2023-08-12T05:54:10.582Z,1008.94
2023-08-12T05:55:10.585Z,1008.94
2023-08-12T05:56:10.524Z,1008.94
2023-08-12T05:57:10.539Z,1008.96
2023-08-12T05:58:10.510Z,1008.97
2023-08-12T05:59:10.510Z,1008.99
2023-08-12T06:00:10.510Z,1009.00
2023-08-12T06:01:10.577Z,1009.01
2023-08-12T06:02:10.931Z,1009.01
2023-08-12T06:03:10.507Z,1009.01
2023-08-12T06:04:10.509Z,1009.01
2023-08-12T06:05:10.448Z,1009.02
2023-08-12T06:06:10.447Z,1009.04
2023-08-12T06:07:10.447Z,1009.05
2023-08-12T06:08:10.390Z,1009.05
2023-08-12T06:09:10.407Z,1009.04
2023-08-12T06:10:10.407Z,1009.04
2023-08-12T06:11:10.388Z,1009.03
2023-08-12T06:12:10.770Z,1009.02
2023-08-12T06:13:10.361Z,1009.03
2023-08-12T06:14:10.330Z,1009.04
2023-08-12T06:15:10.353Z,1009.05
2023-08-12T06:16:10.406Z,1009.06
2023-08-12T06:17:10.328Z,1009.06
2023-08-12T06:18:10.386Z,1009.06
2023-08-12T06:19:10.306Z,1009.06
2023-08-12T06:20:10.260Z,1009.05
2023-08-12T06:21:10.275Z,1009.05
2023-08-12T06:22:10.593Z,1009.04
2023-08-12T06:23:10.251Z,1009.03
2023-08-12T06:24:10.252Z,1009.02
2023-08-12T06:25:10.247Z,1009.02
2023-08-12T06:26:10.238Z,1009.00
2023-08-12T06:27:10.259Z,1008.99
2023-08-12T06:28:10.180Z,1008.97
2023-08-12T06:29:10.189Z,1008.95
2023-08-12T06:30:10.195Z,1008.93
2023-08-12T06:31:10.233Z,1008.92
2023-08-12T06:32:10.498Z,1008.93
2023-08-12T06:33:10.147Z,1008.93
2023-08-12T06:34:10.116Z,1008.92
2023-08-12T06:35:10.159Z,1008.91
2023-08-12T06:36:10.162Z,1008.88
2023-08-12T06:37:10.117Z,1008.86
2023-08-12T06:38:10.077Z,1008.84
2023-08-12T06:39:10.089Z,1008.84
2023-08-12T06:40:10.055Z,1008.85
2023-08-12T06:41:10.064Z,1008.88
2023-08-12T06:42:10.326Z,1008.91
2023-08-12T06:43:10.049Z,1008.92
2023-08-12T06:44:10.014Z,1008.92
2023-08-12T06:45:10.042Z,1008.91
2023-08-12T06:46:10.023Z,1008.90
2023-08-12T06:47:10.004Z,1008.88
2023-08-12T06:48:10.169Z,1008.88
2023-08-12T06:49:09.978Z,1008.86
2023-08-12T06:50:09.946Z,1008.84
2023-08-12T06:51:09.961Z,1008.83
2023-08-12T06:52:10.259Z,1008.83
2023-08-12T06:53:09.948Z,1008.81
2023-08-12T06:54:10.132Z,1008.81
2023-08-12T06:55:09.916Z,1008.79
2023-08-12T06:56:09.886Z,1008.78
2023-08-12T06:57:09.894Z,1008.79
2023-08-12T06:58:09.862Z,1008.80
2023-08-12T06:59:09.874Z,1008.81
2023-08-12T07:00:10.168Z,1008.81
2023-08-12T07:01:10.451Z,1008.79
2023-08-12T07:02:10.120Z,1008.80
2023-08-12T07:03:09.896Z,1008.81
2023-08-12T07:04:09.804Z,1008.83
2023-08-12T07:05:09.819Z,1008.83
2023-08-12T07:06:10.297Z,1008.84
2023-08-12T07:07:09.819Z,1008.83
2023-08-12T07:08:09.757Z,1008.83
2023-08-12T07:09:09.787Z,1008.82
2023-08-12T07:10:09.736Z,1008.82
2023-08-12T07:11:09.750Z,1008.81
2023-08-12T07:12:10.580Z,1008.81
2023-08-12T07:13:09.736Z,1008.81
2023-08-12T07:14:09.702Z,1008.82
2023-08-12T07:15:09.728Z,1008.81
2023-08-12T07:16:09.763Z,1008.80
2023-08-12T07:17:09.682Z,1008.78
2023-08-12T07:18:10.185Z,1008.77
2023-08-12T07:19:09.641Z,1008.76
2023-08-12T07:20:09.658Z,1008.73
2023-08-12T07:21:09.646Z,1008.73
2023-08-12T07:22:10.002Z,1008.72
2023-08-12T07:23:09.602Z,1008.72
2023-08-12T07:24:09.634Z,1008.77
2023-08-12T07:25:09.593Z,1008.76
2023-08-12T07:26:09.594Z,1008.77
2023-08-12T07:27:09.572Z,1008.75
2023-08-12T07:28:09.572Z,1008.72
2023-08-12T07:29:09.547Z,1008.68
2023-08-12T07:30:09.593Z,1008.66
2023-08-12T07:31:09.531Z,1008.64
2023-08-12T07:32:09.679Z,1008.64
2023-08-12T07:33:09.532Z,1008.64
2023-08-12T07:34:09.511Z,1008.62
2023-08-12T07:35:09.506Z,1008.60
2023-08-12T07:36:09.536Z,1008.58
2023-08-12T07:37:09.456Z,1008.56
2023-08-12T07:38:09.459Z,1008.55
2023-08-12T07:39:09.429Z,1008.54
2023-08-12T07:40:09.443Z,1008.52
2023-08-12T07:41:09.414Z,1008.52
2023-08-12T07:42:09.593Z,1008.52
2023-08-12T07:43:09.395Z,1008.50
2023-08-12T07:44:09.427Z,1008.48
2023-08-12T07:45:09.369Z,1008.45
2023-08-12T07:46:10.486Z,1008.41
2023-08-12T07:47:09.342Z,1008.39
2023-08-12T07:48:09.415Z,1008.36
2023-08-12T07:49:09.344Z,1008.34
2023-08-12T07:50:09.355Z,1008.32
2023-08-12T07:51:09.305Z,1008.30
2023-08-12T07:52:09.558Z,1008.29
2023-08-12T07:53:09.290Z,1008.27
2023-08-12T07:54:09.317Z,1008.25
2023-08-12T07:55:09.257Z,1008.24
2023-08-12T07:56:09.274Z,1008.23
2023-08-12T07:57:09.236Z,1008.22
2023-08-12T07:58:09.249Z,1008.23
2023-08-12T07:59:09.214Z,1008.26
2023-08-12T08:00:09.329Z,1008.29
2023-08-12T08:01:09.200Z,1008.30
2023-08-12T08:02:09.278Z,1008.31
2023-08-12T08:03:09.263Z,1008.32
2023-08-12T08:04:09.202Z,1008.31
2023-08-12T08:05:09.210Z,1008.31
2023-08-12T08:06:09.188Z,1008.31
2023-08-12T08:07:09.144Z,1008.31
2023-08-12T08:08:09.162Z,1008.31
2023-08-12T08:09:09.115Z,1008.31
2023-08-12T08:10:09.128Z,1008.32
2023-08-12T08:11:09.092Z,1008.35
2023-08-12T08:12:09.238Z,1008.36
2023-08-12T08:13:09.085Z,1008.37
2023-08-12T08:14:09.090Z,1008.37
2023-08-12T08:15:09.046Z,1008.38
2023-08-12T08:16:09.126Z,1008.39
2023-08-12T08:17:09.142Z,1008.41
2023-08-12T08:18:09.232Z,1008.45
2023-08-12T08:19:10.233Z,1008.49
2023-08-12T08:20:09.019Z,1008.52
2023-08-12T08:21:08.980Z,1008.53
2023-08-12T08:22:08.993Z,1008.53
2023-08-12T08:23:08.966Z,1008.53
2023-08-12T08:24:08.993Z,1008.56
2023-08-12T08:25:08.941Z,1008.58
2023-08-12T08:26:08.955Z,1008.59
2023-08-12T08:27:08.917Z,1008.59
2023-08-12T08:28:08.925Z,1008.54
2023-08-12T08:29:08.899Z,1008.49
2023-08-12T08:30:08.911Z,1008.46
2023-08-12T08:31:08.924Z,1008.41
2023-08-12T08:32:08.863Z,1008.38
2023-08-12T08:33:08.898Z,1008.36
2023-08-12T08:34:08.875Z,1008.32
2023-08-12T08:35:08.895Z,1008.32
2023-08-12T08:36:08.896Z,1008.31
2023-08-12T08:37:08.809Z,1008.29
2023-08-12T08:38:08.828Z,1008.27
2023-08-12T08:39:08.937Z,1008.24
2023-08-12T08:40:08.815Z,1008.18
2023-08-12T08:41:08.769Z,1008.17
2023-08-12T08:42:08.811Z,1008.17
2023-08-12T08:43:08.761Z,1008.17
2023-08-12T08:44:08.765Z,1008.18
2023-08-12T08:45:08.724Z,1008.15
2023-08-12T08:46:08.764Z,1008.11
2023-08-12T08:47:08.704Z,1008.11
2023-08-12T08:48:08.786Z,1008.09
2023-08-12T08:49:08.687Z,1008.10
2023-08-12T08:50:08.702Z,1008.06
2023-08-12T08:51:08.665Z,1008.04
2023-08-12T08:52:08.670Z,1008.02
2023-08-12T08:53:08.652Z,1008.03
2023-08-12T08:54:08.693Z,1008.05
2023-08-12T08:55:08.794Z,1008.10
2023-08-12T08:56:14.745Z,1008.13
2023-08-12T08:57:14.922Z,1008.17
2023-08-12T08:58:08.626Z,1008.16
2023-08-12T08:59:08.582Z,1008.14
2023-08-12T09:00:16.495Z,1008.12
2023-08-12T09:01:08.557Z,1008.13
2023-08-12T09:02:08.580Z,1008.09
2023-08-12T09:03:08.593Z,1008.09
2023-08-12T09:04:08.568Z,1008.12
2023-08-12T09:05:08.542Z,1008.14
2023-08-12T09:06:08.551Z,1008.16
2023-08-12T09:07:08.494Z,1008.10
2023-08-12T09:08:08.513Z,1008.05
2023-08-12T09:09:08.471Z,1008.09
2023-08-12T09:10:08.485Z,1008.09
2023-08-12T09:11:08.453Z,1008.09
2023-08-12T09:12:08.499Z,1008.11
2023-08-12T09:13:08.495Z,1008.12
2023-08-12T09:14:08.439Z,1008.11
2023-08-12T09:15:08.412Z,1008.13
2023-08-12T09:16:08.481Z,1008.14
2023-08-12T09:17:08.388Z,1008.13
2023-08-12T09:18:08.440Z,1008.09
2023-08-12T09:19:08.366Z,1008.11
2023-08-12T09:20:08.391Z,1008.11
2023-08-12T09:21:08.358Z,1008.08
2023-08-12T09:22:08.366Z,1008.09
2023-08-12T09:23:08.325Z,1008.11
2023-08-12T09:24:08.454Z,1008.11
2023-08-12T09:25:08.299Z,1008.13
2023-08-12T09:26:08.316Z,1008.16
2023-08-12T09:27:08.278Z,1008.18
2023-08-12T09:28:08.290Z,1008.20
2023-08-12T09:29:08.256Z,1008.24
2023-08-12T09:30:08.307Z,1008.22
2023-08-12T09:31:08.235Z,1008.23
2023-08-12T09:32:08.313Z,1008.21
2023-08-12T09:33:08.423Z,1008.19
2023-08-12T09:34:08.234Z,1008.18
2023-08-12T09:35:08.197Z,1008.17
2023-08-12T09:36:08.242Z,1008.13
2023-08-12T09:37:08.173Z,1008.19
2023-08-12T09:38:08.195Z,1008.14
2023-08-12T09:39:08.153Z,1008.14
2023-08-12T09:40:08.181Z,1008.14
2023-08-12T09:41:08.134Z,1008.12
2023-08-12T09:42:08.192Z,1008.14
2023-08-12T09:43:08.118Z,1008.14
2023-08-12T09:44:08.134Z,1008.16
2023-08-12T09:45:08.100Z,1008.16
2023-08-12T09:46:08.134Z,1008.12
2023-08-12T09:47:08.067Z,1008.12
2023-08-12T09:48:08.111Z,1008.16
2023-08-12T09:49:08.047Z,1008.18
2023-08-12T09:50:08.062Z,1008.22
2023-08-12T09:51:08.021Z,1008.20
2023-08-12T09:52:08.072Z,1008.25
2023-08-12T09:53:08.024Z,1008.26
2023-08-12T09:54:08.042Z,1008.27
2023-08-12T09:55:07.981Z,1008.24
2023-08-12T09:56:07.997Z,1008.25
2023-08-12T09:57:07.972Z,1008.28
2023-08-12T09:58:07.976Z,1008.18
2023-08-12T09:59:07.941Z,1008.25
2023-08-12T10:00:07.973Z,1008.23
2023-08-12T10:01:07.938Z,1008.24
2023-08-12T10:02:07.931Z,1008.24
2023-08-12T10:03:07.926Z,1008.24
2023-08-12T10:04:07.917Z,1008.28
2023-08-12T10:05:07.877Z,1008.31
2023-08-12T10:06:07.923Z,1008.32
2023-08-12T10:07:07.853Z,1008.31
2023-08-12T10:08:07.867Z,1008.31
2023-08-12T10:09:07.833Z,1008.30
2023-08-12T10:10:07.887Z,1008.31
2023-08-12T10:11:13.334Z,1008.32
2023-08-12T10:12:07.917Z,1008.30
2023-08-12T10:13:07.791Z,1008.32
2023-08-12T10:14:07.802Z,1008.28
2023-08-12T10:15:07.796Z,1008.25
2023-08-12T10:16:07.818Z,1008.21
2023-08-12T10:17:07.750Z,1008.17
2023-08-12T10:18:11.461Z,1008.16
2023-08-12T10:19:07.726Z,1008.24
2023-08-12T10:20:07.736Z,1008.23
2023-08-12T10:21:07.717Z,1008.16
2023-08-12T10:22:07.719Z,1008.25
2023-08-12T10:23:07.683Z,1008.19
2023-08-12T10:24:07.717Z,1008.15
2023-08-12T10:25:07.665Z,1008.15
2023-08-12T10:26:07.726Z,1008.13
2023-08-12T10:27:07.641Z,1008.08
2023-08-12T10:28:07.666Z,1008.08
2023-08-12T10:29:07.624Z,1008.09
2023-08-12T10:30:07.648Z,1008.09
2023-08-12T10:31:07.665Z,1008.10
2023-08-12T10:32:07.613Z,1008.06
2023-08-12T10:33:07.575Z,1008.09
2023-08-12T10:34:07.587Z,1008.06
2023-08-12T10:35:07.553Z,1008.02
2023-08-12T10:36:07.605Z,1008.10
2023-08-12T10:37:07.541Z,1008.04
2023-08-12T10:38:07.569Z,1008.02
2023-08-12T10:39:07.517Z,1008.08
2023-08-12T10:40:07.526Z,1008.17
2023-08-12T10:41:07.489Z,1008.07
2023-08-12T10:42:07.530Z,1008.11
2023-08-12T10:43:07.612Z,1008.06
2023-08-12T10:44:07.485Z,1008.11
2023-08-12T10:45:07.451Z,1008.04
2023-08-12T10:46:07.463Z,1008.15
2023-08-12T10:47:07.478Z,1008.16
2023-08-12T10:48:07.482Z,1008.13
2023-08-12T10:49:07.431Z,1008.04
2023-08-12T10:50:07.421Z,1008.02
2023-08-12T10:51:07.381Z,1008.04
2023-08-12T10:52:07.402Z,1008.10
2023-08-12T10:53:07.361Z,1008.09
2023-08-12T10:54:07.420Z,1008.08
2023-08-12T10:55:07.340Z,1008.10
2023-08-12T10:56:07.355Z,1008.14
2023-08-12T10:57:07.321Z,1008.11
2023-08-12T10:58:07.371Z,1008.05
2023-08-12T10:59:07.298Z,1008.08
2023-08-12T11:00:07.346Z,1008.09
2023-08-12T11:01:07.313Z,1008.09
2023-08-12T11:02:07.319Z,1008.09
2023-08-12T11:03:07.277Z,1008.14
2023-08-12T11:04:07.322Z,1008.17
2023-08-12T11:05:07.250Z,1008.13
2023-08-12T11:06:07.275Z,1008.13
2023-08-12T11:07:07.215Z,1008.15
2023-08-12T11:08:07.542Z,1008.14
2023-08-12T11:09:07.194Z,1008.09
2023-08-12T11:10:07.232Z,1008.10
2023-08-12T11:11:07.173Z,1008.12
2023-08-12T11:12:07.210Z,1008.18
2023-08-12T11:13:07.157Z,1008.06
2023-08-12T11:14:07.168Z,1008.03
2023-08-12T11:15:07.140Z,1007.99
2023-08-12T11:16:07.158Z,1007.93
2023-08-12T11:17:07.107Z,1007.87
2023-08-12T11:18:07.226Z,1007.86
2023-08-12T11:19:07.091Z,1007.91
2023-08-12T11:20:07.526Z,1007.84
2023-08-12T11:21:07.089Z,1007.89
2023-08-12T11:22:07.078Z,1007.87
2023-08-12T11:23:07.052Z,1007.94
2023-08-12T11:24:07.106Z,1007.93
2023-08-12T11:25:07.027Z,1007.93
2023-08-12T11:26:07.045Z,1007.93
2023-08-12T11:27:07.261Z,1007.93
2023-08-12T11:28:07.036Z,1007.91
2023-08-12T11:29:06.982Z,1007.86
2023-08-12T11:30:07.026Z,1007.90
2023-08-12T11:31:07.043Z,1007.86
2023-08-12T11:32:06.975Z,1007.87
2023-08-12T11:33:07.023Z,1007.83
2023-08-12T11:34:06.950Z,1007.90
2023-08-12T11:35:06.992Z,1007.86
2023-08-12T11:36:06.984Z,1007.87
2023-08-12T11:37:07.010Z,1007.82
2023-08-12T11:38:06.916Z,1007.83
2023-08-12T11:39:06.904Z,1007.76
2023-08-12T11:40:06.874Z,1007.74
2023-08-12T11:41:06.896Z,1007.79
2023-08-12T11:42:06.874Z,1007.75
2023-08-12T11:43:07.361Z,1007.74
2023-08-12T11:44:06.822Z,1007.79
2023-08-12T11:45:06.845Z,1007.72
2023-08-12T11:46:06.888Z,1007.74
2023-08-12T11:47:06.812Z,1007.68
2023-08-12T11:48:06.826Z,1007.71
2023-08-12T11:49:06.938Z,1007.66
2023-08-12T11:50:06.758Z,1007.61
2023-08-12T11:51:06.794Z,1007.63
2023-08-12T11:52:06.741Z,1007.66
2023-08-12T11:53:06.746Z,1007.69
2023-08-12T11:54:06.750Z,1007.67
2023-08-12T11:55:06.759Z,1007.60
2023-08-12T11:56:06.714Z,1007.61
2023-08-12T11:57:06.706Z,1007.64
2023-08-12T11:58:06.669Z,1007.62
2023-08-12T11:59:06.685Z,1007.60
2023-08-12T12:00:06.680Z,1007.61
2023-08-12T12:01:06.681Z,1007.64
2023-08-12T12:02:06.633Z,1007.60
2023-08-12T12:03:06.726Z,1007.62
2023-08-12T12:04:06.685Z,1007.59
2023-08-12T12:05:06.630Z,1007.59